Time;durP1;ratioP1;P1;durP2;ratioP2;P2;SDS_P1;SDS_P2;PMS_P1;PMS_P2;Temp;Humidity;BMP_temperature;BMP_pressure;BME280_temperature;BME280_humidity;BME280_pressure;Samples;Min_cycle;Max_cycle;Signal;HPM_P1;HPM_P2
2021/01/23 00:04:03;;;;;;;12.13;6.57;;;;;;;;;;10358757;28;20230;-68
2021/01/23 00:09:05;;;;;;;12.07;7.37;;;;;;;;;;10369433;28;20253;-70
2021/01/23 00:14:07;;;;;;;12.33;7.00;;;;;;;;;;10367582;28;20288;-70
2021/01/23 00:19:09;;;;;;;12.37;7.50;;;;;;;;;;10366781;28;20218;-69
2021/01/23 00:24:11;;;;;;;10.73;6.73;;;;;;;;;;10358178;28;20202;-70
2021/01/23 00:29:13;;;;;;;14.67;7.20;;;;;;;;;;10365410;28;20539;-70
2021/01/23 00:34:15;;;;;;;14.43;7.50;;;;;;;;;;10360432;28;20226;-70
2021/01/23 00:39:17;;;;;;;9.90;5.67;;;;;;;;;;10360828;28;20273;-71
2021/01/23 00:44:19;;;;;;;11.60;7.17;;;;;;;;;;10362690;28;20288;-70
2021/01/23 00:49:21;;;;;;;11.27;6.87;;;;;;;;;;10363162;28;20372;-72
2021/01/23 00:54:22;;;;;;;13.67;7.33;;;;;;;;;;10362694;28;20300;-71
2021/01/23 00:59:24;;;;;;;13.73;8.77;;;;;;;;;;10360003;28;20304;-70
2021/01/23 01:04:26;;;;;;;14.90;8.30;;;;;;;;;;10358916;28;20264;-70
2021/01/23 01:09:28;;;;;;;12.97;6.70;;;;;;;;;;10355831;28;20245;-70
2021/01/23 01:14:30;;;;;;;12.60;6.40;;;;;;;;;;10361993;28;20202;-71
2021/01/23 01:19:32;;;;;;;15.57;9.93;;;;;;;;;;10362554;28;20214;-70
2021/01/23 01:24:33;;;;;;;16.63;9.50;;;;;;;;;;10363590;28;20249;-71
2021/01/23 01:29:36;;;;;;;14.63;8.13;;;;;;;;;;10356545;28;20563;-70
2021/01/23 01:34:38;;;;;;;15.17;8.93;;;;;;;;;;10357259;28;20218;-71
2021/01/23 01:39:40;;;;;;;12.23;7.53;;;;;;;;;;10364358;28;20807;-70
2021/01/23 01:44:42;;;;;;;13.73;7.90;;;;;;;;;;10361742;28;20639;-70
2021/01/23 01:49:44;;;;;;;10.53;5.60;;;;;;;;;;10360374;28;20610;-72
2021/01/23 01:54:45;;;;;;;8.50;4.33;;;;;;;;;;10346914;28;20782;-70
2021/01/23 01:59:49;;;;;;;11.73;6.60;;;;;;;;;;10347122;28;20312;-70
2021/01/23 02:04:56;;;;;;;8.40;4.70;;;;;;;;;;10361387;28;20285;-71
2021/01/23 02:10:05;;;;;;;7.80;4.20;;;;;;;;;;10364701;28;20214;-69
2021/01/23 02:15:11;;;;;;;6.03;2.83;;;;;;;;;;10358387;28;20209;-70
2021/01/23 02:20:39;;;;;;;5.63;2.60;;;;;;;;;;10362140;28;20245;-70
2021/01/23 02:25:53;;;;;;;1.90;1.03;;;;;;;;;;10310644;28;20289;-70
2021/01/23 02:31:03;;;;;;;2.57;1.40;;;;;;;;;;10363016;28;20238;-69
2021/01/23 02:36:05;;;;;;;5.23;1.70;;;;;;;;;;10360100;28;20281;-70
2021/01/23 02:41:07;;;;;;;2.50;1.10;;;;;;;;;;10358681;28;20214;-71
2021/01/23 02:46:10;;;;;;;2.43;1.00;;;;;;;;;;10358280;28;20213;-70
2021/01/23 02:51:13;;;;;;;1.73;1.20;;;;;;;;;;10363100;28;20232;-71
2021/01/23 02:56:17;;;;;;;2.73;1.10;;;;;;;;;;10360443;28;20981;-70
2021/01/23 03:01:21;;;;;;;0.53;0.30;;;;;;;;;;10358348;28;20313;-71
2021/01/23 03:06:23;;;;;;;2.13;1.03;;;;;;;;;;10369734;28;20260;-71
2021/01/23 03:11:24;;;;;;;1.10;0.67;;;;;;;;;;10367207;28;20207;-70
2021/01/23 03:16:27;;;;;;;1.40;0.60;;;;;;;;;;10366097;28;20222;-70
2021/01/23 03:21:28;;;;;;;1.10;0.70;;;;;;;;;;10367244;28;20306;-70
2021/01/23 03:26:30;;;;;;;1.00;0.73;;;;;;;;;;10364303;28;20587;-71
2021/01/23 03:31:32;;;;;;;0.50;0.50;;;;;;;;;;10368020;28;20221;-71
2021/01/23 03:36:35;;;;;;;1.00;0.67;;;;;;;;;;10343625;28;20199;-72
2021/01/23 03:41:37;;;;;;;1.37;0.70;;;;;;;;;;10366419;28;20294;-70
2021/01/23 03:46:40;;;;;;;0.93;0.70;;;;;;;;;;10362485;28;20556;-71
2021/01/23 03:51:41;;;;;;;1.63;0.90;;;;;;;;;;10364189;28;20250;-71
2021/01/23 03:56:43;;;;;;;1.13;0.43;;;;;;;;;;10360988;28;20276;-70
2021/01/23 04:01:45;;;;;;;0.63;0.30;;;;;;;;;;10345106;28;20288;-70
2021/01/23 04:06:47;;;;;;;0.30;0.30;;;;;;;;;;10367321;28;20240;-70
2021/01/23 04:11:49;;;;;;;0.37;0.37;;;;;;;;;;10357923;28;20233;-71
2021/01/23 04:16:51;;;;;;;0.57;0.40;;;;;;;;;;10362864;28;20202;-72
2021/01/23 04:21:53;;;;;;;0.23;0.23;;;;;;;;;;10365749;28;20218;-72
2021/01/23 04:26:54;;;;;;;0.50;0.50;;;;;;;;;;10357060;28;20335;-70
2021/01/23 04:31:57;;;;;;;0.13;0.13;;;;;;;;;;10365894;28;20225;-70
2021/01/23 04:36:58;;;;;;;0.37;0.27;;;;;;;;;;10354953;28;20234;-70
2021/01/23 04:42:00;;;;;;;0.00;0.00;;;;;;;;;;10343701;28;20226;-69
2021/01/23 04:47:05;;;;;;;0.63;0.40;;;;;;;;;;10362306;28;20230;-69
2021/01/23 04:52:07;;;;;;;0.30;0.30;;;;;;;;;;10364180;28;20203;-70
2021/01/23 04:57:09;;;;;;;0.33;0.33;;;;;;;;;;10370550;28;20731;-70
2021/01/23 05:02:18;;;;;;;0.17;0.10;;;;;;;;;;10338589;28;20225;-70
2021/01/23 05:07:24;;;;;;;2.50;0.30;;;;;;;;;;10358018;28;20981;-71
2021/01/23 05:12:41;;;;;;;0.40;0.40;;;;;;;;;;10363493;28;20423;-71
2021/01/23 05:17:47;;;;;;;0.30;0.30;;;;;;;;;;10361401;28;20218;-72
2021/01/23 05:22:49;;;;;;;0.40;0.40;;;;;;;;;;10364425;28;20761;-73
2021/01/23 05:27:50;;;;;;;0.10;0.10;;;;;;;;;;10361853;28;20202;-73
2021/01/23 05:33:06;;;;;;;1.03;0.40;;;;;;;;;;10367515;28;20752;-73
2021/01/23 05:38:22;;;;;;;1.07;0.87;;;;;;;;;;10352818;28;20666;-71
2021/01/23 05:43:33;;;;;;;0.73;0.47;;;;;;;;;;10348481;28;20201;-71
2021/01/23 05:48:37;;;;;;;1.07;0.70;;;;;;;;;;10341800;28;20240;-71
2021/01/23 05:53:38;;;;;;;0.60;0.40;;;;;;;;;;10361484;28;20194;-71
2021/01/23 05:58:40;;;;;;;0.47;0.40;;;;;;;;;;10355753;28;20186;-71
2021/01/23 06:03:43;;;;;;;0.57;0.57;;;;;;;;;;10361231;28;20222;-71
2021/01/23 06:08:46;;;;;;;0.57;0.57;;;;;;;;;;10358973;28;20233;-71
2021/01/23 06:13:48;;;;;;;0.60;0.43;;;;;;;;;;10331548;28;20196;-71
2021/01/23 06:18:51;;;;;;;1.27;0.73;;;;;;;;;;10360085;28;20214;-71
2021/01/23 06:23:52;;;;;;;1.20;0.90;;;;;;;;;;10362501;28;20214;-71
2021/01/23 06:28:54;;;;;;;0.80;0.50;;;;;;;;;;10359790;28;20272;-70
2021/01/23 06:33:57;;;;;;;0.47;0.30;;;;;;;;;;10355845;28;20187;-71
2021/01/23 06:38:59;;;;;;;0.87;0.67;;;;;;;;;;10359976;28;20226;-71
2021/01/23 06:44:25;;;;;;;1.30;1.00;;;;;;;;;;10366862;28;20206;-70
2021/01/23 06:49:27;;;;;;;0.90;0.70;;;;;;;;;;10347160;28;20214;-71
2021/01/23 06:54:29;;;;;;;1.00;0.80;;;;;;;;;;10352151;28;20243;-72
2021/01/23 06:59:31;;;;;;;1.40;1.03;;;;;;;;;;10351174;28;20233;-71
2021/01/23 07:04:34;;;;;;;2.97;1.23;;;;;;;;;;10363148;28;20245;-71
2021/01/23 07:09:47;;;;;;;1.17;0.87;;;;;;;;;;10361341;28;20273;-71
2021/01/23 07:14:49;;;;;;;1.27;0.80;;;;;;;;;;10349977;28;20598;-71
2021/01/23 07:19:51;;;;;;;2.97;1.50;;;;;;;;;;10367708;28;20214;-71
2021/01/23 07:24:53;;;;;;;1.53;1.00;;;;;;;;;;10366835;28;20717;-71
2021/01/23 07:29:55;;;;;;;2.97;0.90;;;;;;;;;;10367800;28;20725;-70
2021/01/23 07:34:59;;;;;;;1.97;1.20;;;;;;;;;;10368637;28;20204;-70
2021/01/23 07:40:04;;;;;;;1.37;0.70;;;;;;;;;;10347444;28;20296;-72
2021/01/23 07:45:06;;;;;;;0.43;0.43;;;;;;;;;;10362432;28;20294;-71
2021/01/23 07:50:10;;;;;;;1.73;0.67;;;;;;;;;;10361558;28;20309;-72
2021/01/23 07:55:12;;;;;;;2.13;1.40;;;;;;;;;;10357465;28;20713;-72
2021/01/23 08:00:20;;;;;;;2.27;1.40;;;;;;;;;;10361742;28;20249;-73
2021/01/23 08:05:40;;;;;;;2.70;1.53;;;;;;;;;;10373622;28;20210;-71
2021/01/23 08:10:41;;;;;;;1.10;0.93;;;;;;;;;;10348638;28;20598;-72
2021/01/23 08:15:43;;;;;;;3.77;1.70;;;;;;;;;;10371932;28;20194;-71
2021/01/23 08:20:45;;;;;;;2.07;1.37;;;;;;;;;;10365449;28;20226;-70
2021/01/23 08:25:48;;;;;;;5.23;2.17;;;;;;;;;;10364124;28;20204;-70
2021/01/23 08:30:50;;;;;;;3.47;1.70;;;;;;;;;;10364798;28;20571;-71
2021/01/23 08:35:53;;;;;;;2.40;1.30;;;;;;;;;;10360469;28;20293;-71
2021/01/23 08:40:54;;;;;;;3.17;1.53;;;;;;;;;;10362802;28;20290;-70
2021/01/23 08:45:56;;;;;;;6.23;2.00;;;;;;;;;;10358268;28;20226;-71
2021/01/23 08:51:00;;;;;;;3.23;1.87;;;;;;;;;;10360531;28;20597;-71
2021/01/23 08:56:05;;;;;;;4.03;2.10;;;;;;;;;;10344700;28;20665;-69
2021/01/23 09:01:07;;;;;;;2.73;1.53;;;;;;;;;;10362525;28;20277;-70
2021/01/23 09:06:09;;;;;;;5.43;2.30;;;;;;;;;;10368037;28;20289;-70
2021/01/23 09:11:11;;;;;;;3.40;1.70;;;;;;;;;;10360392;28;20215;-71
2021/01/23 09:16:16;;;;;;;4.20;1.70;;;;;;;;;;10359832;28;20558;-70
2021/01/23 09:21:20;;;;;;;2.97;1.80;;;;;;;;;;10364904;28;20650;-72
2021/01/23 09:26:23;;;;;;;2.70;1.70;;;;;;;;;;10362077;28;20622;-72
2021/01/23 09:31:25;;;;;;;4.20;1.90;;;;;;;;;;10363229;28;20199;-71
2021/01/23 09:36:28;;;;;;;1.40;0.70;;;;;;;;;;10363794;28;20213;-70
2021/01/23 09:41:30;;;;;;;2.97;1.70;;;;;;;;;;10362041;28;20214;-69
2021/01/23 09:46:31;;;;;;;2.60;1.47;;;;;;;;;;10359926;28;20205;-71
2021/01/23 09:51:34;;;;;;;3.67;1.60;;;;;;;;;;10360694;28;20237;-71
2021/01/23 09:56:35;;;;;;;3.10;1.37;;;;;;;;;;10360398;28;20198;-71
2021/01/23 10:01:38;;;;;;;1.60;0.80;;;;;;;;;;10361523;28;20221;-71
2021/01/23 10:06:40;;;;;;;5.87;2.50;;;;;;;;;;10363797;28;20225;-71
2021/01/23 10:11:42;;;;;;;4.73;2.00;;;;;;;;;;10361456;28;20289;-71
2021/01/23 10:16:43;;;;;;;3.27;1.93;;;;;;;;;;10358921;28;20257;-70
2021/01/23 10:21:46;;;;;;;5.33;2.63;;;;;;;;;;10341676;28;20313;-70
2021/01/23 10:26:48;;;;;;;3.73;2.20;;;;;;;;;;10341015;28;20194;-72
2021/01/23 10:31:49;;;;;;;3.30;1.87;;;;;;;;;;10359142;28;20538;-71
2021/01/23 10:36:52;;;;;;;4.40;2.13;;;;;;;;;;10358091;28;20212;-71
2021/01/23 10:41:54;;;;;;;4.37;2.00;;;;;;;;;;10342051;28;20214;-70
2021/01/23 10:46:55;;;;;;;4.50;1.97;;;;;;;;;;10356626;28;20281;-72
2021/01/23 10:51:58;;;;;;;3.77;2.10;;;;;;;;;;10341016;28;20222;-71
2021/01/23 10:57:02;;;;;;;3.50;1.90;;;;;;;;;;10351250;28;20202;-70
2021/01/23 11:02:04;;;;;;;4.57;2.27;;;;;;;;;;10336271;28;20245;-70
2021/01/23 11:07:07;;;;;;;3.27;2.00;;;;;;;;;;10358252;28;20737;-70
2021/01/23 11:12:08;;;;;;;4.30;2.27;;;;;;;;;;10356508;28;20714;-70
2021/01/23 11:17:10;;;;;;;4.70;2.67;;;;;;;;;;10358844;28;20225;-70
2021/01/23 11:22:13;;;;;;;3.13;1.67;;;;;;;;;;10360222;28;20210;-70
2021/01/23 11:27:14;;;;;;;7.07;3.60;;;;;;;;;;10361846;28;20237;-71
2021/01/23 11:32:19;;;;;;;11.07;4.70;;;;;;;;;;10357395;28;20218;-71
2021/01/23 11:37:21;;;;;;;6.13;3.03;;;;;;;;;;10366304;28;20249;-70
2021/01/23 11:42:23;;;;;;;7.00;3.27;;;;;;;;;;10359706;28;20315;-70
2021/01/23 11:47:24;;;;;;;10.63;4.50;;;;;;;;;;10365953;28;20626;-70
2021/01/23 11:52:27;;;;;;;5.37;2.50;;;;;;;;;;10364476;28;20756;-70
2021/01/23 11:57:29;;;;;;;4.77;2.30;;;;;;;;;;10366762;28;20272;-70
2021/01/23 12:02:31;;;;;;;4.60;2.50;;;;;;;;;;10348530;28;20226;-70
2021/01/23 12:07:33;;;;;;;4.87;2.70;;;;;;;;;;10336768;28;20202;-71
2021/01/23 12:12:35;;;;;;;3.43;2.10;;;;;;;;;;10355359;28;20679;-71
2021/01/23 12:17:37;;;;;;;3.63;1.80;;;;;;;;;;10361356;28;20696;-71
2021/01/23 12:22:40;;;;;;;5.57;2.60;;;;;;;;;;10364674;28;20217;-70
2021/01/23 12:27:41;;;;;;;7.03;2.97;;;;;;;;;;10363274;28;20618;-70
2021/01/23 12:32:43;;;;;;;8.30;3.67;;;;;;;;;;10373941;28;20288;-71
2021/01/23 12:37:46;;;;;;;6.07;3.23;;;;;;;;;;10367048;28;20226;-71
2021/01/23 12:42:48;;;;;;;6.33;2.73;;;;;;;;;;10366332;28;20267;-70
2021/01/23 12:47:49;;;;;;;3.63;1.73;;;;;;;;;;10365987;28;20233;-71
2021/01/23 12:52:52;;;;;;;5.67;2.67;;;;;;;;;;10367626;28;20210;-71
2021/01/23 12:57:54;;;;;;;4.83;2.30;;;;;;;;;;10366486;28;20202;-70
2021/01/23 13:02:55;;;;;;;5.30;2.23;;;;;;;;;;10364877;28;20369;-70
2021/01/23 13:07:58;;;;;;;6.13;2.63;;;;;;;;;;10361989;28;20234;-71
2021/01/23 13:13:00;;;;;;;1.90;1.23;;;;;;;;;;10353460;28;20225;-71
2021/01/23 13:18:05;;;;;;;5.40;2.20;;;;;;;;;;10356474;28;20190;-71
2021/01/23 13:23:07;;;;;;;4.13;2.17;;;;;;;;;;10371097;28;20816;-72
2021/01/23 13:28:09;;;;;;;5.27;2.40;;;;;;;;;;10364443;28;20277;-69
2021/01/23 13:33:10;;;;;;;6.23;2.40;;;;;;;;;;10369682;28;20224;-71
2021/01/23 13:38:16;;;;;;;6.13;2.50;;;;;;;;;;10372187;28;20202;-70
2021/01/23 13:43:17;;;;;;;4.87;2.43;;;;;;;;;;10366952;28;20257;-70
2021/01/23 13:48:19;;;;;;;4.83;2.20;;;;;;;;;;10351085;28;20226;-71
2021/01/23 13:53:21;;;;;;;4.13;1.80;;;;;;;;;;10367903;28;20222;-70
2021/01/23 13:58:23;;;;;;;5.10;2.40;;;;;;;;;;10366147;28;20673;-72
2021/01/23 14:03:25;;;;;;;5.70;2.20;;;;;;;;;;10365872;28;20871;-70
2021/01/23 14:08:27;;;;;;;8.40;2.77;;;;;;;;;;10364960;28;20324;-71
2021/01/23 14:13:29;;;;;;;6.53;2.60;;;;;;;;;;10365475;28;20385;-71
2021/01/23 14:18:30;;;;;;;5.03;2.30;;;;;;;;;;10349604;28;20225;-71
2021/01/23 14:23:33;;;;;;;5.53;2.70;;;;;;;;;;10363533;28;20222;-71
2021/01/23 14:28:34;;;;;;;4.70;2.47;;;;;;;;;;10362312;28;20355;-71
2021/01/23 14:33:36;;;;;;;6.60;2.40;;;;;;;;;;10361515;28;20252;-70
2021/01/23 14:38:39;;;;;;;7.20;2.67;;;;;;;;;;10352241;28;20210;-70
2021/01/23 14:43:57;;;;;;;6.73;2.93;;;;;;;;;;10362024;28;20210;-72
2021/01/23 14:48:59;;;;;;;5.60;2.50;;;;;;;;;;10362701;28;20343;-71
2021/01/23 14:54:03;;;;;;;6.07;2.60;;;;;;;;;;10372259;28;20201;-70
2021/01/23 14:59:05;;;;;;;5.67;2.50;;;;;;;;;;10374917;28;20218;-71
2021/01/23 15:04:07;;;;;;;6.10;2.77;;;;;;;;;;10374712;28;20233;-70
2021/01/23 15:09:09;;;;;;;6.43;2.47;;;;;;;;;;10355589;28;20210;-70
2021/01/23 15:14:11;;;;;;;4.37;2.40;;;;;;;;;;10376400;28;20205;-70
2021/01/23 15:19:13;;;;;;;7.53;3.10;;;;;;;;;;10369136;28;20610;-71
2021/01/23 15:24:16;;;;;;;7.47;2.70;;;;;;;;;;10379698;28;20210;-71
2021/01/23 15:29:17;;;;;;;6.77;2.70;;;;;;;;;;10366603;28;20213;-72
2021/01/23 15:34:19;;;;;;;8.07;2.90;;;;;;;;;;10371338;28;20250;-71
2021/01/23 15:39:21;;;;;;;7.13;3.30;;;;;;;;;;10375145;28;20237;-71
2021/01/23 15:44:23;;;;;;;6.03;2.90;;;;;;;;;;10367362;28;20218;-70
2021/01/23 15:49:25;;;;;;;8.50;3.50;;;;;;;;;;10367084;28;20298;-70
2021/01/23 15:54:27;;;;;;;6.13;2.90;;;;;;;;;;10367161;28;20234;-71
2021/01/23 15:59:29;;;;;;;9.60;3.03;;;;;;;;;;10351233;28;20832;-70
2021/01/23 16:04:31;;;;;;;7.93;3.10;;;;;;;;;;10363435;28;20215;-69
2021/01/23 16:09:33;;;;;;;7.87;3.50;;;;;;;;;;10372395;28;20215;-70
2021/01/23 16:14:35;;;;;;;7.57;3.60;;;;;;;;;;10368084;28;22168;-72
2021/01/23 16:19:37;;;;;;;7.43;3.50;;;;;;;;;;10358534;28;20289;-72
2021/01/23 16:24:40;;;;;;;8.33;4.17;;;;;;;;;;10364757;28;20651;-70
2021/01/23 16:29:43;;;;;;;10.10;4.47;;;;;;;;;;10374314;28;20219;-71
2021/01/23 16:34:44;;;;;;;10.43;4.80;;;;;;;;;;10347662;28;20693;-71
2021/01/23 16:39:47;;;;;;;10.43;3.90;;;;;;;;;;10346839;28;20222;-71
2021/01/23 16:44:50;;;;;;;11.00;4.83;;;;;;;;;;10364845;28;22630;-70
2021/01/23 16:49:52;;;;;;;5.20;1.83;;;;;;;;;;10364635;28;20277;-71
2021/01/23 16:54:55;;;;;;;9.77;4.57;;;;;;;;;;10366205;28;20274;-71
2021/01/23 16:59:57;;;;;;;5.33;2.77;;;;;;;;;;10369912;28;20301;-71
2021/01/23 17:04:58;;;;;;;7.23;3.10;;;;;;;;;;10370642;28;20230;-71
2021/01/23 17:10:04;;;;;;;2.93;1.60;;;;;;;;;;10361190;28;20352;-73
2021/01/23 17:15:07;;;;;;;4.90;2.57;;;;;;;;;;10367910;28;20258;-71
2021/01/23 17:20:10;;;;;;;8.90;4.07;;;;;;;;;;10363143;28;20214;-69
2021/01/23 17:25:13;;;;;;;7.13;2.83;;;;;;;;;;10343966;28;20221;-70
2021/01/23 17:30:16;;;;;;;10.20;4.80;;;;;;;;;;10344259;28;20306;-70
2021/01/23 17:35:19;;;;;;;9.07;4.17;;;;;;;;;;10365166;28;20194;-70
2021/01/23 17:40:24;;;;;;;11.33;5.97;;;;;;;;;;10349896;28;20902;-70
2021/01/23 17:45:26;;;;;;;11.13;5.30;;;;;;;;;;10357374;28;20210;-71
2021/01/23 17:50:28;;;;;;;12.07;6.57;;;;;;;;;;10365346;28;20245;-71
2021/01/23 17:55:31;;;;;;;10.23;5.13;;;;;;;;;;10347808;28;20195;-70
2021/01/23 18:00:34;;;;;;;9.03;4.13;;;;;;;;;;10352892;28;20206;-71
2021/01/23 18:05:36;;;;;;;5.23;2.63;;;;;;;;;;10345827;28;20619;-69
2021/01/23 18:10:38;;;;;;;7.93;2.87;;;;;;;;;;10351565;28;20702;-69
2021/01/23 18:15:41;;;;;;;8.30;4.57;;;;;;;;;;10358892;28;20302;-71
2021/01/23 18:20:44;;;;;;;5.33;2.83;;;;;;;;;;10336340;28;20261;-70
2021/01/23 18:25:47;;;;;;;6.07;2.77;;;;;;;;;;10347386;28;20709;-71
2021/01/23 18:30:50;;;;;;;9.20;4.33;;;;;;;;;;10343341;28;20253;-69
2021/01/23 18:35:54;;;;;;;7.83;2.30;;;;;;;;;;10349047;28;20198;-71
2021/01/23 18:40:58;;;;;;;9.00;4.23;;;;;;;;;;10349743;28;20222;-70
2021/01/23 18:45:59;;;;;;;7.77;2.90;;;;;;;;;;10344503;28;20269;-70
2021/01/23 18:51:03;;;;;;;9.10;3.93;;;;;;;;;;10361268;28;20214;-70
2021/01/23 18:56:06;;;;;;;7.33;3.37;;;;;;;;;;10356959;28;20190;-69
2021/01/23 19:01:07;;;;;;;5.97;2.27;;;;;;;;;;10355217;28;20344;-70
2021/01/23 19:06:10;;;;;;;10.23;4.37;;;;;;;;;;10366320;28;20233;-69
2021/01/23 19:11:13;;;;;;;3.83;1.93;;;;;;;;;;10355270;28;20694;-70
2021/01/23 19:16:15;;;;;;;8.27;4.33;;;;;;;;;;10360604;28;20195;-70
2021/01/23 19:21:17;;;;;;;6.60;2.73;;;;;;;;;;10325802;28;20298;-70
2021/01/23 19:26:19;;;;;;;4.13;1.57;;;;;;;;;;10369321;28;20299;-70
2021/01/23 19:31:24;;;;;;;10.17;3.93;;;;;;;;;;10355557;28;20363;-70
2021/01/23 19:36:27;;;;;;;8.90;3.57;;;;;;;;;;10362610;28;20194;-71
2021/01/23 19:41:29;;;;;;;6.73;2.57;;;;;;;;;;10373942;28;20262;-72
2021/01/23 19:46:31;;;;;;;8.07;3.87;;;;;;;;;;10374873;28;20206;-72
2021/01/23 19:51:34;;;;;;;10.33;4.30;;;;;;;;;;10364059;28;21406;-70
2021/01/23 19:56:37;;;;;;;8.87;3.50;;;;;;;;;;10360209;28;20195;-71
2021/01/23 20:01:43;;;;;;;3.47;1.90;;;;;;;;;;10367882;28;20770;-72
2021/01/23 20:06:47;;;;;;;6.97;3.07;;;;;;;;;;10355654;28;20222;-71
2021/01/23 20:11:56;;;;;;;8.00;3.43;;;;;;;;;;10349049;28;20255;-71
2021/01/23 20:17:05;;;;;;;7.73;3.17;;;;;;;;;;10338561;28;20711;-74
2021/01/23 20:22:06;;;;;;;10.97;4.93;;;;;;;;;;10365876;28;20221;-73
2021/01/23 20:27:13;;;;;;;7.70;3.57;;;;;;;;;;10356766;28;20233;-74
2021/01/23 20:32:19;;;;;;;7.00;3.33;;;;;;;;;;10357054;28;20222;-75
2021/01/23 20:37:32;;;;;;;9.13;4.37;;;;;;;;;;10376785;28;20734;-76
2021/01/23 20:42:40;;;;;;;8.17;4.20;;;;;;;;;;10350908;28;20222;-74
2021/01/23 20:47:46;;;;;;;12.70;5.23;;;;;;;;;;10352029;28;20198;-73
2021/01/23 20:52:49;;;;;;;7.50;3.93;;;;;;;;;;10376351;28;20313;-76
2021/01/23 20:57:54;;;;;;;6.43;2.50;;;;;;;;;;10367135;28;20210;-75
2021/01/23 21:03:00;;;;;;;8.37;4.00;;;;;;;;;;10381622;28;20222;-74
2021/01/23 21:08:05;;;;;;;5.20;2.27;;;;;;;;;;10360357;28;20195;-73
2021/01/23 21:13:08;;;;;;;6.27;2.63;;;;;;;;;;10373104;28;20219;-73
2021/01/23 21:18:10;;;;;;;8.50;3.87;;;;;;;;;;10355995;28;20203;-74
2021/01/23 21:23:12;;;;;;;10.30;3.47;;;;;;;;;;10351317;28;20707;-73
2021/01/23 21:28:14;;;;;;;8.83;3.50;;;;;;;;;;10360171;28;20187;-73
2021/01/23 21:33:16;;;;;;;7.53;3.83;;;;;;;;;;10364697;28;20694;-72
2021/01/23 21:38:18;;;;;;;4.27;2.50;;;;;;;;;;10354425;28;20221;-73
2021/01/23 21:43:20;;;;;;;4.37;2.10;;;;;;;;;;10344966;28;20198;-73
2021/01/23 21:48:22;;;;;;;5.37;2.67;;;;;;;;;;10364276;28;20273;-74
2021/01/23 21:53:24;;;;;;;8.13;4.33;;;;;;;;;;10365860;28;20237;-74
2021/01/23 21:58:27;;;;;;;8.30;3.70;;;;;;;;;;10339329;28;20359;-73
2021/01/23 22:03:28;;;;;;;8.93;4.17;;;;;;;;;;10347079;28;20218;-73
2021/01/23 22:08:31;;;;;;;7.40;2.73;;;;;;;;;;10346109;28;20230;-74
2021/01/23 22:13:34;;;;;;;5.13;1.97;;;;;;;;;;10354653;28;20214;-73
2021/01/23 22:18:37;;;;;;;7.13;3.67;;;;;;;;;;10357766;28;20194;-72
2021/01/23 22:23:39;;;;;;;9.40;4.93;;;;;;;;;;10348030;28;20206;-72
2021/01/23 22:28:42;;;;;;;9.43;5.07;;;;;;;;;;10344885;28;20206;-73
2021/01/23 22:33:44;;;;;;;11.23;5.97;;;;;;;;;;10362732;28;20194;-73
2021/01/23 22:38:45;;;;;;;10.23;5.60;;;;;;;;;;10358142;28;20216;-73
2021/01/23 22:43:48;;;;;;;11.70;5.90;;;;;;;;;;10344450;28;20217;-71
2021/01/23 22:48:49;;;;;;;8.33;3.23;;;;;;;;;;10363726;28;20298;-73
2021/01/23 22:53:51;;;;;;;10.67;5.97;;;;;;;;;;10362176;28;20190;-72
2021/01/23 22:58:54;;;;;;;10.50;5.60;;;;;;;;;;10357849;28;20253;-73
2021/01/23 23:03:57;;;;;;;10.47;5.97;;;;;;;;;;10339108;28;20213;-74
2021/01/23 23:09:00;;;;;;;5.80;2.63;;;;;;;;;;10355775;28;20276;-74
2021/01/23 23:14:08;;;;;;;11.50;6.37;;;;;;;;;;10357803;28;20206;-72
2021/01/23 23:19:10;;;;;;;11.20;5.43;;;;;;;;;;10360328;28;20215;-73
2021/01/23 23:24:12;;;;;;;9.93;5.17;;;;;;;;;;10367338;28;20219;-74
2021/01/23 23:29:14;;;;;;;11.43;5.83;;;;;;;;;;10366405;28;20258;-72
2021/01/23 23:34:16;;;;;;;11.23;5.70;;;;;;;;;;10372430;28;20191;-73
2021/01/23 23:39:18;;;;;;;11.20;5.77;;;;;;;;;;10350338;28;20643;-72
2021/01/23 23:44:20;;;;;;;9.60;5.33;;;;;;;;;;10368233;28;20277;-71
2021/01/23 23:49:22;;;;;;;12.50;6.27;;;;;;;;;;10368115;28;20234;-72
2021/01/23 23:54:24;;;;;;;10.67;5.60;;;;;;;;;;10372587;28;20689;-71
2021/01/23 23:59:30;;;;;;;8.93;5.03;;;;;;;;;;10374699;28;20270;-73
